sensor_id;sensor_type;location;lat;lon;timestamp;pressure;altitude;pressure_sealevel;temperature;humidity
52535;BME280;38443;53.164;5.802;2023-01-29T00:02:01;103022.22;;;2.45;100.00
52535;BME280;38443;53.164;5.802;2023-01-29T00:04:28;103018.72;;;2.46;100.00
52535;BME280;38443;53.164;5.802;2023-01-29T00:06:54;103014.28;;;2.45;100.00
52535;BME280;38443;53.164;5.802;2023-01-29T00:09:19;103016.06;;;2.46;100.00
52535;BME280;38443;53.164;5.802;2023-01-29T00:11:44;103016.94;;;2.45;100.00
52535;BME280;38443;53.164;5.802;2023-01-29T00:14:10;103016.06;;;2.46;100.00
52535;BME280;38443;53.164;5.802;2023-01-29T00:16:35;103017.81;;;2.46;100.00
52535;BME280;38443;53.164;5.802;2023-01-29T00:19:01;103008.22;;;2.48;100.00
52535;BME280;38443;53.164;5.802;2023-01-29T00:21:28;103012.69;;;2.49;100.00
52535;BME280;38443;53.164;5.802;2023-01-29T00:23:55;103008.22;;;2.48;100.00
52535;BME280;38443;53.164;5.802;2023-01-29T00:26:20;103006.53;;;2.50;100.00
52535;BME280;38443;53.164;5.802;2023-01-29T00:28:46;103012.72;;;2.50;100.00
52535;BME280;38443;53.164;5.802;2023-01-29T00:31:15;103005.63;;;2.49;100.00
52535;BME280;38443;53.164;5.802;2023-01-29T00:33:40;103006.66;;;2.53;100.00
52535;BME280;38443;53.164;5.802;2023-01-29T00:36:07;102997.78;;;2.51;100.00
52535;BME280;38443;53.164;5.802;2023-01-29T00:38:34;103003.09;;;2.52;100.00
52535;BME280;38443;53.164;5.802;2023-01-29T00:43:49;102996.09;;;2.53;100.00
52535;BME280;38443;53.164;5.802;2023-01-29T00:46:33;102989.00;;;2.52;100.00
52535;BME280;38443;53.164;5.802;2023-01-29T00:48:59;102992.53;;;2.52;100.00
52535;BME280;38443;53.164;5.802;2023-01-29T00:51:24;102987.22;;;2.51;100.00
52535;BME280;38443;53.164;5.802;2023-01-29T00:53:49;102983.63;;;2.50;100.00
52535;BME280;38443;53.164;5.802;2023-01-29T00:56:15;102980.16;;;2.51;100.00
52535;BME280;38443;53.164;5.802;2023-01-29T00:58:40;102979.28;;;2.51;100.00
52535;BME280;38443;53.164;5.802;2023-01-29T01:01:05;102982.88;;;2.53;100.00
52535;BME280;38443;53.164;5.802;2023-01-29T01:03:30;102982.81;;;2.51;100.00
52535;BME280;38443;53.164;5.802;2023-01-29T01:06:06;102987.25;;;2.52;100.00
52535;BME280;38443;53.164;5.802;2023-01-29T01:08:31;102988.16;;;2.53;100.00
52535;BME280;38443;53.164;5.802;2023-01-29T01:11:16;102988.16;;;2.53;100.00
52535;BME280;38443;53.164;5.802;2023-01-29T01:13:41;102995.16;;;2.52;100.00
52535;BME280;38443;53.164;5.802;2023-01-29T01:16:16;102995.16;;;2.52;100.00
52535;BME280;38443;53.164;5.802;2023-01-29T01:18:42;102994.34;;;2.53;100.00
52535;BME280;38443;53.164;5.802;2023-01-29T01:21:08;102997.81;;;2.52;100.00
52535;BME280;38443;53.164;5.802;2023-01-29T01:23:34;102991.69;;;2.53;100.00
52535;BME280;38443;53.164;5.802;2023-01-29T01:25:59;103000.53;;;2.54;100.00
52535;BME280;38443;53.164;5.802;2023-01-29T01:28:26;102992.59;;;2.54;100.00
52535;BME280;38443;53.164;5.802;2023-01-29T01:30:51;102987.38;;;2.55;100.00
52535;BME280;38443;53.164;5.802;2023-01-29T01:33:17;102982.91;;;2.54;100.00
52535;BME280;38443;53.164;5.802;2023-01-29T01:35:42;102982.09;;;2.55;100.00
52535;BME280;38443;53.164;5.802;2023-01-29T01:38:07;102983.84;;;2.55;100.00
52535;BME280;38443;53.164;5.802;2023-01-29T01:40:33;102983.88;;;2.56;100.00
52535;BME280;38443;53.164;5.802;2023-01-29T01:42:59;102986.47;;;2.55;100.00
52535;BME280;38443;53.164;5.802;2023-01-29T01:45:26;102985.63;;;2.56;100.00
52535;BME280;38443;53.164;5.802;2023-01-29T01:47:59;102984.78;;;2.57;100.00
52535;BME280;38443;53.164;5.802;2023-01-29T01:50:32;102987.44;;;2.57;100.00
52535;BME280;38443;53.164;5.802;2023-01-29T01:53:04;102990.09;;;2.57;100.00
52535;BME280;38443;53.164;5.802;2023-01-29T01:55:31;102984.00;;;2.59;100.00
52535;BME280;38443;53.164;5.802;2023-01-29T01:58:25;102984.81;;;2.58;100.00
52535;BME280;38443;53.164;5.802;2023-01-29T02:00:52;102986.66;;;2.59;100.00
52535;BME280;38443;53.164;5.802;2023-01-29T02:03:19;102989.28;;;2.59;100.00
52535;BME280;38443;53.164;5.802;2023-01-29T02:06:04;102990.19;;;2.60;100.00
52535;BME280;38443;53.164;5.802;2023-01-29T02:08:54;103000.69;;;2.58;100.00
52535;BME280;38443;53.164;5.802;2023-01-29T02:11:40;103001.63;;;2.59;100.00
52535;BME280;38443;53.164;5.802;2023-01-29T02:14:05;102995.31;;;2.55;100.00
52535;BME280;38443;53.164;5.802;2023-01-29T02:16:33;102994.44;;;2.56;100.00
52535;BME280;38443;53.164;5.802;2023-01-29T02:19:00;102998.00;;;2.57;100.00
52535;BME280;38443;53.164;5.802;2023-01-29T02:27:02;102973.25;;;2.55;100.00
52535;BME280;38443;53.164;5.802;2023-01-29T02:30:18;102978.53;;;2.55;100.00
52535;BME280;38443;53.164;5.802;2023-01-29T02:35:34;102962.63;;;2.53;100.00
52535;BME280;38443;53.164;5.802;2023-01-29T02:40:55;102958.16;;;2.52;100.00
52535;BME280;38443;53.164;5.802;2023-01-29T02:43:45;102960.81;;;2.52;100.00
52535;BME280;38443;53.164;5.802;2023-01-29T02:46:20;102958.16;;;2.52;100.00
52535;BME280;38443;53.164;5.802;2023-01-29T02:51:43;102948.44;;;2.51;100.00
52535;BME280;38443;53.164;5.802;2023-01-29T02:56:51;102929.81;;;2.48;100.00
52535;BME280;38443;53.164;5.802;2023-01-29T02:59:22;102923.63;;;2.48;100.00
52535;BME280;38443;53.164;5.802;2023-01-29T03:01:56;102918.28;;;2.46;100.00
52535;BME280;38443;53.164;5.802;2023-01-29T03:04:32;102913.00;;;2.46;100.00
52535;BME280;38443;53.164;5.802;2023-01-29T03:07:06;102901.47;;;2.44;100.00
52535;BME280;38443;53.164;5.802;2023-01-29T03:09:47;102899.75;;;2.45;100.00
52535;BME280;38443;53.164;5.802;2023-01-29T03:12:21;102905.03;;;2.45;100.00
52535;BME280;38443;53.164;5.802;2023-01-29T03:15:01;102891.81;;;2.45;100.00
52535;BME280;38443;53.164;5.802;2023-01-29T03:17:44;102898.00;;;2.45;100.00
52535;BME280;38443;53.164;5.802;2023-01-29T03:20:16;102894.47;;;2.45;100.00
52535;BME280;38443;53.164;5.802;2023-01-29T03:22:44;102898.06;;;2.47;100.00
52535;BME280;38443;53.164;5.802;2023-01-29T03:25:14;102890.06;;;2.45;100.00
52535;BME280;38443;53.164;5.802;2023-01-29T03:27:59;102890.06;;;2.45;100.00
52535;BME280;38443;53.164;5.802;2023-01-29T03:30:54;102884.78;;;2.45;100.00
52535;BME280;38443;53.164;5.802;2023-01-29T03:33:51;102879.56;;;2.47;100.00
52535;BME280;38443;53.164;5.802;2023-01-29T03:36:26;102876.00;;;2.46;100.00
52535;BME280;38443;53.164;5.802;2023-01-29T03:39:05;102882.22;;;2.47;100.00
52535;BME280;38443;53.164;5.802;2023-01-29T03:41:35;102876.00;;;2.46;100.00
52535;BME280;38443;53.164;5.802;2023-01-29T03:47:13;102877.03;;;2.50;100.00
52535;BME280;38443;53.164;5.802;2023-01-29T03:50:04;102884.16;;;2.52;100.00
52535;BME280;38443;53.164;5.802;2023-01-29T03:52:50;102876.22;;;2.52;100.00
52535;BME280;38443;53.164;5.802;2023-01-29T03:55:32;102878.09;;;2.55;100.00
52535;BME280;38443;53.164;5.802;2023-01-29T03:58:04;102875.47;;;2.55;100.00
52535;BME280;38443;53.164;5.802;2023-01-29T04:00:41;102873.72;;;2.55;100.00
52535;BME280;38443;53.164;5.802;2023-01-29T04:05:50;102872.09;;;2.59;100.00
52535;BME280;38443;53.164;5.802;2023-01-29T04:08:25;102866.00;;;2.62;100.00
52535;BME280;38443;53.164;5.802;2023-01-29T04:10:53;102872.31;;;2.65;100.00
52535;BME280;38443;53.164;5.802;2023-01-29T04:13:22;102864.44;;;2.67;100.00
52535;BME280;38443;53.164;5.802;2023-01-29T04:15:53;102868.84;;;2.68;100.00
52535;BME280;38443;53.164;5.802;2023-01-29T04:18:20;102851.31;;;2.70;100.00
52535;BME280;38443;53.164;5.802;2023-01-29T04:20:45;102849.47;;;2.67;100.00
52535;BME280;38443;53.164;5.802;2023-01-29T04:23:20;102843.38;;;2.70;100.00
52535;BME280;38443;53.164;5.802;2023-01-29T04:25:59;102852.25;;;2.72;100.00
52535;BME280;38443;53.164;5.802;2023-01-29T04:28:53;102841.63;;;2.70;100.00
52535;BME280;38443;53.164;5.802;2023-01-29T04:31:27;102849.63;;;2.72;100.00
52535;BME280;38443;53.164;5.802;2023-01-29T04:36:43;102861.06;;;2.72;100.00
52535;BME280;38443;53.164;5.802;2023-01-29T04:39:20;102854.00;;;2.71;100.00
52535;BME280;38443;53.164;5.802;2023-01-29T04:42:14;102857.59;;;2.73;100.00
52535;BME280;38443;53.164;5.802;2023-01-29T04:44:56;102860.31;;;2.75;100.00
52535;BME280;38443;53.164;5.802;2023-01-29T04:47:35;102866.50;;;2.75;100.00
52535;BME280;38443;53.164;5.802;2023-01-29T04:50:34;102870.03;;;2.76;100.00
52535;BME280;38443;53.164;5.802;2023-01-29T04:53:23;102861.13;;;2.74;100.00
52535;BME280;38443;53.164;5.802;2023-01-29T04:55:56;102858.50;;;2.74;100.00
52535;BME280;38443;53.164;5.802;2023-01-29T04:58:32;102856.75;;;2.74;100.00
52535;BME280;38443;53.164;5.802;2023-01-29T05:01:01;102855.03;;;2.75;100.00
52535;BME280;38443;53.164;5.802;2023-01-29T05:03:30;102843.50;;;2.73;100.00
52535;BME280;38443;53.164;5.802;2023-01-29T05:05:59;102846.97;;;2.72;100.00
52535;BME280;38443;53.164;5.802;2023-01-29T05:08:27;102837.25;;;2.71;100.00
52535;BME280;38443;53.164;5.802;2023-01-29T05:10:55;102839.91;;;2.71;100.00
52535;BME280;38443;53.164;5.802;2023-01-29T05:13:23;102824.88;;;2.70;100.00
52535;BME280;38443;53.164;5.802;2023-01-29T05:15:56;102820.47;;;2.70;100.00
52535;BME280;38443;53.164;5.802;2023-01-29T05:18:24;102830.22;;;2.71;100.00
52535;BME280;38443;53.164;5.802;2023-01-29T05:20:49;102820.38;;;2.67;100.00
52535;BME280;38443;53.164;5.802;2023-01-29T05:23:17;102820.44;;;2.69;100.00
52535;BME280;38443;53.164;5.802;2023-01-29T05:25:43;102819.56;;;2.70;100.00
52535;BME280;38443;53.164;5.802;2023-01-29T05:28:10;102801.94;;;2.69;100.00
52535;BME280;38443;53.164;5.802;2023-01-29T05:30:43;102790.44;;;2.68;100.00
52535;BME280;38443;53.164;5.802;2023-01-29T05:35:37;102808.94;;;2.68;100.00
52535;BME280;38443;53.164;5.802;2023-01-29T05:38:02;102807.97;;;2.65;100.00
52535;BME280;38443;53.164;5.802;2023-01-29T05:40:27;102809.75;;;2.66;100.00
52535;BME280;38443;53.164;5.802;2023-01-29T05:42:53;102795.44;;;2.60;100.00
52535;BME280;38443;53.164;5.802;2023-01-29T05:45:18;102800.72;;;2.60;100.00
52535;BME280;38443;53.164;5.802;2023-01-29T05:47:44;102783.84;;;2.55;100.00
52535;BME280;38443;53.164;5.802;2023-01-29T05:50:09;102774.16;;;2.56;100.00
52535;BME280;38443;53.164;5.802;2023-01-29T05:52:35;102775.00;;;2.55;100.00
52535;BME280;38443;53.164;5.802;2023-01-29T05:55:00;102769.66;;;2.53;100.00
52535;BME280;38443;53.164;5.802;2023-01-29T05:57:25;102772.31;;;2.53;100.00
52535;BME280;38443;53.164;5.802;2023-01-29T05:59:51;102771.34;;;2.51;100.00
52535;BME280;38443;53.164;5.802;2023-01-29T06:02:16;102775.69;;;2.49;100.00
52535;BME280;38443;53.164;5.802;2023-01-29T06:04:41;102778.22;;;2.46;100.00
52535;BME280;38443;53.164;5.802;2023-01-29T06:07:07;102781.66;;;2.44;100.00
52535;BME280;38443;53.164;5.802;2023-01-29T06:09:32;102775.47;;;2.43;100.00
52535;BME280;38443;53.164;5.802;2023-01-29T06:11:57;102779.81;;;2.41;100.00
52535;BME280;38443;53.164;5.802;2023-01-29T06:14:23;102773.56;;;2.39;100.00
52535;BME280;38443;53.164;5.802;2023-01-29T06:16:48;102766.47;;;2.38;100.00
52535;BME280;38443;53.164;5.802;2023-01-29T06:19:13;102756.69;;;2.35;100.00
52535;BME280;38443;53.164;5.802;2023-01-29T06:21:39;102755.75;;;2.33;100.00
52535;BME280;38443;53.164;5.802;2023-01-29T06:24:04;102758.38;;;2.33;100.00
52535;BME280;38443;53.164;5.802;2023-01-29T06:26:29;102760.16;;;2.33;100.00
52535;BME280;38443;53.164;5.802;2023-01-29T06:28:55;102755.75;;;2.33;100.00
52535;BME280;38443;53.164;5.802;2023-01-29T06:31:20;102756.56;;;2.32;100.00
52535;BME280;38443;53.164;5.802;2023-01-29T06:33:45;102772.50;;;2.34;100.00
52535;BME280;38443;53.164;5.802;2023-01-29T06:36:11;102768.09;;;2.34;100.00
52535;BME280;38443;53.164;5.802;2023-01-29T06:38:36;102770.72;;;2.33;100.00
52535;BME280;38443;53.164;5.802;2023-01-29T06:41:12;102764.47;;;2.31;100.00
52535;BME280;38443;53.164;5.802;2023-01-29T06:43:38;102757.38;;;2.30;100.00
52535;BME280;38443;53.164;5.802;2023-01-29T06:46:06;102758.25;;;2.30;100.00
52535;BME280;38443;53.164;5.802;2023-01-29T06:48:32;102752.97;;;2.30;100.00
52535;BME280;38443;53.164;5.802;2023-01-29T06:51:01;102757.38;;;2.30;100.00
52535;BME280;38443;53.164;5.802;2023-01-29T06:53:27;102754.72;;;2.30;100.00
52535;BME280;38443;53.164;5.802;2023-01-29T06:55:52;102759.19;;;2.31;100.00
52535;BME280;38443;53.164;5.802;2023-01-29T06:58:18;102758.25;;;2.30;100.00
52535;BME280;38443;53.164;5.802;2023-01-29T07:00:43;102752.16;;;2.31;100.00
52535;BME280;38443;53.164;5.802;2023-01-29T07:03:09;102750.41;;;2.32;100.00
52535;BME280;38443;53.164;5.802;2023-01-29T07:05:35;102751.25;;;2.31;100.00
52535;BME280;38443;53.164;5.802;2023-01-29T07:08:00;102740.72;;;2.32;100.00
52535;BME280;38443;53.164;5.802;2023-01-29T07:10:25;102734.53;;;2.32;100.00
52535;BME280;38443;53.164;5.802;2023-01-29T07:12:51;102735.44;;;2.32;100.00
52535;BME280;38443;53.164;5.802;2023-01-29T07:15:16;102727.50;;;2.32;100.00
52535;BME280;38443;53.164;5.802;2023-01-29T07:18:02;102732.78;;;2.32;100.00
52535;BME280;38443;53.164;5.802;2023-01-29T07:20:37;102739.84;;;2.32;100.00
52535;BME280;38443;53.164;5.802;2023-01-29T07:23:03;102735.44;;;2.32;100.00
52535;BME280;38443;53.164;5.802;2023-01-29T07:25:28;102739.00;;;2.33;100.00
52535;BME280;38443;53.164;5.802;2023-01-29T07:27:55;102731.91;;;2.32;100.00
52535;BME280;38443;53.164;5.802;2023-01-29T07:30:21;102731.91;;;2.32;100.00
52535;BME280;38443;53.164;5.802;2023-01-29T07:32:46;102727.50;;;2.32;100.00
52535;BME280;38443;53.164;5.802;2023-01-29T07:35:12;102734.53;;;2.32;100.00
52535;BME280;38443;53.164;5.802;2023-01-29T07:37:37;102722.19;;;2.31;100.00
52535;BME280;38443;53.164;5.802;2023-01-29T07:40:03;102716.91;;;2.31;100.00
52535;BME280;38443;53.164;5.802;2023-01-29T07:42:34;102715.09;;;2.30;100.00
52535;BME280;38443;53.164;5.802;2023-01-29T07:44:59;102727.56;;;2.34;100.00
52535;BME280;38443;53.164;5.802;2023-01-29T07:47:25;102712.53;;;2.31;100.00
52535;BME280;38443;53.164;5.802;2023-01-29T07:49:50;102717.88;;;2.33;100.00
52535;BME280;38443;53.164;5.802;2023-01-29T07:52:15;102723.09;;;2.31;100.00
52535;BME280;38443;53.164;5.802;2023-01-29T07:54:41;102720.53;;;2.34;100.00
52535;BME280;38443;53.164;5.802;2023-01-29T07:57:06;102713.53;;;2.35;100.00
52535;BME280;38443;53.164;5.802;2023-01-29T07:59:31;102723.31;;;2.37;100.00
52535;BME280;38443;53.164;5.802;2023-01-29T08:01:58;102718.06;;;2.39;100.00
52535;BME280;38443;53.164;5.802;2023-01-29T08:04:24;102714.63;;;2.42;100.00
52535;BME280;38443;53.164;5.802;2023-01-29T08:06:49;102713.84;;;2.44;100.00
52535;BME280;38443;53.164;5.802;2023-01-29T08:09:14;102714.75;;;2.45;100.00
52535;BME280;38443;53.164;5.802;2023-01-29T08:11:39;102717.41;;;2.46;100.00
52535;BME280;38443;53.164;5.802;2023-01-29T08:14:05;102706.03;;;2.47;100.00
52535;BME280;38443;53.164;5.802;2023-01-29T08:16:30;102710.44;;;2.48;100.00
52535;BME280;38443;53.164;5.802;2023-01-29T08:18:56;102711.47;;;2.52;100.00
52535;BME280;38443;53.164;5.802;2023-01-29T08:21:21;102705.28;;;2.51;100.00
52535;BME280;38443;53.164;5.802;2023-01-29T08:23:46;102703.59;;;2.53;100.00
52535;BME280;38443;53.164;5.802;2023-01-29T08:26:11;102699.25;;;2.55;100.00
52535;BME280;38443;53.164;5.802;2023-01-29T08:28:37;102695.75;;;2.56;100.00
52535;BME280;38443;53.164;5.802;2023-01-29T08:31:14;102688.69;;;2.55;100.00
52535;BME280;38443;53.164;5.802;2023-01-29T08:33:40;102684.28;;;2.56;100.00
52535;BME280;38443;53.164;5.802;2023-01-29T08:36:06;102691.41;;;2.58;100.00
52535;BME280;38443;53.164;5.802;2023-01-29T08:38:32;102688.75;;;2.58;100.00
52535;BME280;38443;53.164;5.802;2023-01-29T08:40:57;102679.13;;;2.60;100.00
52535;BME280;38443;53.164;5.802;2023-01-29T08:43:22;102678.25;;;2.60;100.00
52535;BME280;38443;53.164;5.802;2023-01-29T08:45:47;102676.53;;;2.62;100.00
52535;BME280;38443;53.164;5.802;2023-01-29T08:48:13;102667.78;;;2.63;100.00
52535;BME280;38443;53.164;5.802;2023-01-29T08:50:38;102666.91;;;2.64;100.00
52535;BME280;38443;53.164;5.802;2023-01-29T08:53:06;102676.59;;;2.64;100.00
52535;BME280;38443;53.164;5.802;2023-01-29T08:55:34;102671.31;;;2.64;100.00
52535;BME280;38443;53.164;5.802;2023-01-29T08:58:00;102675.78;;;2.65;100.00
52535;BME280;38443;53.164;5.802;2023-01-29T09:00:25;102671.38;;;2.65;100.00
52535;BME280;38443;53.164;5.802;2023-01-29T09:02:50;102665.19;;;2.65;100.00
52535;BME280;38443;53.164;5.802;2023-01-29T09:05:16;102667.88;;;2.66;100.00
52535;BME280;38443;53.164;5.802;2023-01-29T09:07:41;102657.28;;;2.66;100.00
52535;BME280;38443;53.164;5.802;2023-01-29T09:10:06;102667.09;;;2.69;100.00
52535;BME280;38443;53.164;5.802;2023-01-29T09:12:32;102672.47;;;2.72;100.00
52535;BME280;38443;53.164;5.802;2023-01-29T09:14:57;102673.34;;;2.72;100.00
52535;BME280;38443;53.164;5.802;2023-01-29T09:17:23;102671.66;;;2.74;100.00
52535;BME280;38443;53.164;5.802;2023-01-29T09:19:48;102662.91;;;2.75;100.00
52535;BME280;38443;53.164;5.802;2023-01-29T09:22:13;102671.78;;;2.77;100.00
52535;BME280;38443;53.164;5.802;2023-01-29T09:24:39;102664.78;;;2.79;100.00
52535;BME280;38443;53.164;5.802;2023-01-29T09:27:04;102656.09;;;2.84;100.00
52535;BME280;38443;53.164;5.802;2023-01-29T09:29:30;102649.13;;;2.86;100.00
52535;BME280;38443;53.164;5.802;2023-01-29T09:31:55;102652.75;;;2.89;100.00
52535;BME280;38443;53.164;5.802;2023-01-29T09:34:21;102648.41;;;2.91;100.00
52535;BME280;38443;53.164;5.802;2023-01-29T09:36:46;102644.06;;;2.93;100.00
52535;BME280;38443;53.164;5.802;2023-01-29T09:39:11;102652.06;;;2.95;100.00
52535;BME280;38443;53.164;5.802;2023-01-29T09:41:41;102642.44;;;2.97;100.00
52535;BME280;38443;53.164;5.802;2023-01-29T09:44:18;102632.81;;;3.00;100.00
52535;BME280;38443;53.164;5.802;2023-01-29T09:46:46;102630.28;;;3.04;100.00
52535;BME280;38443;53.164;5.802;2023-01-29T09:49:26;102633.03;;;3.08;100.00
52535;BME280;38443;53.164;5.802;2023-01-29T09:51:57;102623.34;;;3.07;100.00
52535;BME280;38443;53.164;5.802;2023-01-29T10:00:05;102615.53;;;3.12;100.00
52535;BME280;38443;53.164;5.802;2023-01-29T10:13:49;102632.59;;;3.22;100.00
52535;BME280;38443;53.164;5.802;2023-01-29T10:19:23;102621.19;;;3.24;100.00
52535;BME280;38443;53.164;5.802;2023-01-29T10:24:51;102623.88;;;3.26;100.00
52535;BME280;38443;53.164;5.802;2023-01-29T10:27:18;102622.19;;;3.28;100.00
52535;BME280;38443;53.164;5.802;2023-01-29T10:29:44;102615.06;;;3.27;100.00
52535;BME280;38443;53.164;5.802;2023-01-29T10:32:18;102609.72;;;3.24;100.00
52535;BME280;38443;53.164;5.802;2023-01-29T10:34:49;102605.31;;;3.24;100.00
52535;BME280;38443;53.164;5.802;2023-01-29T10:37:18;102605.31;;;3.24;100.00
52535;BME280;38443;53.164;5.802;2023-01-29T10:39:45;102600.94;;;3.26;100.00
52535;BME280;38443;53.164;5.802;2023-01-29T10:47:43;102584.34;;;3.32;100.00
52535;BME280;38443;53.164;5.802;2023-01-29T10:56:18;102574.94;;;3.42;100.00
52535;BME280;38443;53.164;5.802;2023-01-29T11:01:57;102553.88;;;3.46;100.00
52535;BME280;38443;53.164;5.802;2023-01-29T11:04:25;102553.06;;;3.49;100.00
52535;BME280;38443;53.164;5.802;2023-01-29T11:06:51;102550.47;;;3.50;100.00
52535;BME280;38443;53.164;5.802;2023-01-29T11:09:27;102546.97;;;3.51;100.00
52535;BME280;38443;53.164;5.802;2023-01-29T11:12:02;102542.63;;;3.53;100.00
52535;BME280;38443;53.164;5.802;2023-01-29T11:16:59;102544.53;;;3.59;100.00
52535;BME280;38443;53.164;5.802;2023-01-29T11:19:38;102545.47;;;3.61;100.00
52535;BME280;38443;53.164;5.802;2023-01-29T11:22:12;102536.72;;;3.64;100.00
52535;BME280;38443;53.164;5.802;2023-01-29T11:24:37;102530.63;;;3.68;100.00
52535;BME280;38443;53.164;5.802;2023-01-29T11:27:12;102529.81;;;3.70;100.00
52535;BME280;38443;53.164;5.802;2023-01-29T11:29:46;102535.19;;;3.73;100.00
52535;BME280;38443;53.164;5.802;2023-01-29T11:37:36;102513.28;;;3.80;100.00
52535;BME280;38443;53.164;5.802;2023-01-29T11:40:33;102508.91;;;3.81;100.00
52535;BME280;38443;53.164;5.802;2023-01-29T11:43:31;102508.97;;;3.84;100.00
52535;BME280;38443;53.164;5.802;2023-01-29T11:46:02;102503.78;;;3.87;100.00
52535;BME280;38443;53.164;5.802;2023-01-29T11:48:49;102503.00;;;3.93;100.00
52535;BME280;38443;53.164;5.802;2023-01-29T11:51:26;102499.63;;;3.98;100.00
52535;BME280;38443;53.164;5.802;2023-01-29T11:53:55;102482.88;;;3.99;100.00
52535;BME280;38443;53.164;5.802;2023-01-29T11:56:27;102489.06;;;4.00;100.00
52535;BME280;38443;53.164;5.802;2023-01-29T11:58:54;102464.34;;;3.99;100.00
52535;BME280;38443;53.164;5.802;2023-01-29T12:01:34;102472.28;;;3.99;100.00
52535;BME280;38443;53.164;5.802;2023-01-29T12:04:01;102466.09;;;3.99;100.00
52535;BME280;38443;53.164;5.802;2023-01-29T12:06:36;102455.41;;;3.96;100.00
52535;BME280;38443;53.164;5.802;2023-01-29T12:09:09;102446.59;;;3.95;100.00
52535;BME280;38443;53.164;5.802;2023-01-29T12:11:35;102458.06;;;3.96;100.00
52535;BME280;38443;53.164;5.802;2023-01-29T12:14:02;102451.00;;;3.95;100.00
52535;BME280;38443;53.164;5.802;2023-01-29T12:16:39;102440.41;;;3.96;100.00
52535;BME280;38443;53.164;5.802;2023-01-29T12:21:48;102415.72;;;3.97;100.00
52535;BME280;38443;53.164;5.802;2023-01-29T12:24:37;102407.81;;;3.99;100.00
52535;BME280;38443;53.164;5.802;2023-01-29T12:29:41;102395.47;;;3.99;100.00
52535;BME280;38443;53.164;5.802;2023-01-29T12:35:19;102378.63;;;3.97;100.00
52535;BME280;38443;53.164;5.802;2023-01-29T12:40:41;102377.84;;;4.02;100.00
52535;BME280;38443;53.164;5.802;2023-01-29T12:43:15;102369.94;;;4.05;100.00
52535;BME280;38443;53.164;5.802;2023-01-29T12:45:43;102355.84;;;4.06;100.00
52535;BME280;38443;53.164;5.802;2023-01-29T12:48:15;102349.72;;;4.08;100.00
52535;BME280;38443;53.164;5.802;2023-01-29T12:50:44;102345.34;;;4.10;100.00
52535;BME280;38443;53.164;5.802;2023-01-29T12:55:51;102338.44;;;4.17;100.00
52535;BME280;38443;53.164;5.802;2023-01-29T12:58:38;102342.03;;;4.19;100.00
52535;BME280;38443;53.164;5.802;2023-01-29T13:01:12;102335.88;;;4.22;100.00
52535;BME280;38443;53.164;5.802;2023-01-29T13:06:11;102325.31;;;4.25;100.00
52535;BME280;38443;53.164;5.802;2023-01-29T13:08:47;102320.09;;;4.28;100.00
52535;BME280;38443;53.164;5.802;2023-01-29T13:11:24;102323.63;;;4.28;100.00
52535;BME280;38443;53.164;5.802;2023-01-29T13:13:58;102319.22;;;4.27;100.00
52535;BME280;38443;53.164;5.802;2023-01-29T13:16:29;102310.34;;;4.27;100.00
52535;BME280;38443;53.164;5.802;2023-01-29T13:18:58;102309.47;;;4.26;100.00
52535;BME280;38443;53.164;5.802;2023-01-29T13:21:29;102311.22;;;4.26;100.00
52535;BME280;38443;53.164;5.802;2023-01-29T13:24:03;102298.00;;;4.27;100.00
52535;BME280;38443;53.164;5.802;2023-01-29T13:26:30;102302.41;;;4.27;100.00
52535;BME280;38443;53.164;5.802;2023-01-29T13:28:57;102294.41;;;4.24;100.00
52535;BME280;38443;53.164;5.802;2023-01-29T13:31:25;102294.31;;;4.19;100.00
52535;BME280;38443;53.164;5.802;2023-01-29T13:36:29;102302.16;;;4.14;100.00
52535;BME280;38443;53.164;5.802;2023-01-29T13:38:59;102280.88;;;4.10;100.00
52535;BME280;38443;53.164;5.802;2023-01-29T13:41:32;102277.34;;;4.09;100.00
52535;BME280;38443;53.164;5.802;2023-01-29T13:44:00;102273.75;;;4.07;100.00
52535;BME280;38443;53.164;5.802;2023-01-29T13:46:26;102261.31;;;4.05;100.00
52535;BME280;38443;53.164;5.802;2023-01-29T13:48:52;102263.97;;;4.03;100.00
52535;BME280;38443;53.164;5.802;2023-01-29T13:51:20;102259.50;;;4.02;100.00
52535;BME280;38443;53.164;5.802;2023-01-29T13:53:59;102260.38;;;4.01;100.00
52535;BME280;38443;53.164;5.802;2023-01-29T13:59:01;102247.16;;;4.01;100.00
52535;BME280;38443;53.164;5.802;2023-01-29T14:04:25;102239.25;;;4.04;100.00
52535;BME280;38443;53.164;5.802;2023-01-29T14:06:54;102242.81;;;4.06;100.00
52535;BME280;38443;53.164;5.802;2023-01-29T14:10:00;102236.66;;;4.09;100.00
52535;BME280;38443;53.164;5.802;2023-01-29T14:12:38;102225.22;;;4.10;100.00
52535;BME280;38443;53.164;5.802;2023-01-29T14:15:14;102232.34;;;4.12;100.00
52535;BME280;38443;53.164;5.802;2023-01-29T14:17:53;102228.84;;;4.13;100.00
52535;BME280;38443;53.164;5.802;2023-01-29T14:20:23;102221.78;;;4.14;100.00
52535;BME280;38443;53.164;5.802;2023-01-29T14:22:55;102216.44;;;4.12;100.00
52535;BME280;38443;53.164;5.802;2023-01-29T14:25:28;102210.28;;;4.13;100.00
52535;BME280;38443;53.164;5.802;2023-01-29T14:27:54;102212.94;;;4.15;100.00
52535;BME280;38443;53.164;5.802;2023-01-29T14:30:21;102210.28;;;4.13;100.00
52535;BME280;38443;53.164;5.802;2023-01-29T14:32:48;102208.47;;;4.12;100.00
52535;BME280;38443;53.164;5.802;2023-01-29T14:35:18;102210.28;;;4.13;100.00
52535;BME280;38443;53.164;5.802;2023-01-29T14:37:50;102205.91;;;4.15;100.00
52535;BME280;38443;53.164;5.802;2023-01-29T14:47:59;102188.41;;;4.24;100.00
52535;BME280;38443;53.164;5.802;2023-01-29T14:56:23;102186.69;;;4.29;100.00
52535;BME280;38443;53.164;5.802;2023-01-29T14:59:10;102186.69;;;4.29;100.00
52535;BME280;38443;53.164;5.802;2023-01-29T15:01:38;102178.75;;;4.29;100.00